sensor_id;sensor_type;location;lat;lon;timestamp;pressure;altitude;pressure_sealevel;temperature;humidity
59588;BME280;45412;54.472;18.464;2023-01-30T00:03:02;98765.65;;;1.31;99.14
59588;BME280;45412;54.472;18.464;2023-01-30T00:05:51;98756.19;;;1.32;99.29
59588;BME280;45412;54.472;18.464;2023-01-30T00:08:40;98743.23;;;1.26;99.23
59588;BME280;45412;54.472;18.464;2023-01-30T00:11:27;98745.80;;;1.30;99.21
59588;BME280;45412;54.472;18.464;2023-01-30T00:14:17;98736.30;;;1.29;99.37
59588;BME280;45412;54.472;18.464;2023-01-30T00:17:05;98729.89;;;1.28;99.41
59588;BME280;45412;54.472;18.464;2023-01-30T00:19:53;98719.11;;;1.24;99.43
59588;BME280;45412;54.472;18.464;2023-01-30T00:22:48;98715.59;;;1.21;99.59
59588;BME280;45412;54.472;18.464;2023-01-30T00:25:47;98699.33;;;1.13;99.48
59588;BME280;45412;54.472;18.464;2023-01-30T00:28:36;98704.08;;;1.15;99.66
59588;BME280;45412;54.472;18.464;2023-01-30T00:31:24;98677.94;;;1.08;99.81
59588;BME280;45412;54.472;18.464;2023-01-30T00:34:12;98683.73;;;1.14;99.79
59588;BME280;45412;54.472;18.464;2023-01-30T00:37:00;98675.36;;;1.13;99.75
59588;BME280;45412;54.472;18.464;2023-01-30T00:39:55;98674.63;;;1.11;99.81
59588;BME280;45412;54.472;18.464;2023-01-30T00:42:46;98662.00;;;1.12;99.68
59588;BME280;45412;54.472;18.464;2023-01-30T00:45:53;98661.94;;;1.13;99.46
59588;BME280;45412;54.472;18.464;2023-01-30T00:48:59;98651.89;;;1.11;99.57
59588;BME280;45412;54.472;18.464;2023-01-30T00:51:47;98647.14;;;1.12;99.74
59588;BME280;45412;54.472;18.464;2023-01-30T00:54:35;98646.23;;;1.10;99.85
59588;BME280;45412;54.472;18.464;2023-01-30T00:57:22;98642.90;;;1.07;99.96
59588;BME280;45412;54.472;18.464;2023-01-30T01:00:11;98618.15;;;1.06;99.99
59588;BME280;45412;54.472;18.464;2023-01-30T01:03:00;98616.73;;;1.04;99.99
59588;BME280;45412;54.472;18.464;2023-01-30T01:05:49;98609.30;;;1.02;99.96
59588;BME280;45412;54.472;18.464;2023-01-30T01:08:37;98594.07;;;1.03;99.98
59588;BME280;45412;54.472;18.464;2023-01-30T01:11:25;98594.22;;;1.04;99.80
59588;BME280;45412;54.472;18.464;2023-01-30T01:14:14;98583.29;;;1.05;99.73
59588;BME280;45412;54.472;18.464;2023-01-30T01:17:02;98575.57;;;1.06;99.64
59588;BME280;45412;54.472;18.464;2023-01-30T01:19:50;98565.85;;;1.05;99.43
59588;BME280;45412;54.472;18.464;2023-01-30T01:22:38;98554.81;;;1.05;99.61
59588;BME280;45412;54.472;18.464;2023-01-30T01:25:26;98547.40;;;1.06;99.54
59588;BME280;45412;54.472;18.464;2023-01-30T01:28:14;98545.30;;;1.07;99.55
59588;BME280;45412;54.472;18.464;2023-01-30T01:31:12;98539.02;;;1.04;99.47
59588;BME280;45412;54.472;18.464;2023-01-30T01:34:01;98527.55;;;1.00;99.56
59588;BME280;45412;54.472;18.464;2023-01-30T01:36:49;98520.45;;;0.98;99.67
59588;BME280;45412;54.472;18.464;2023-01-30T01:39:41;98507.07;;;1.00;99.64
59588;BME280;45412;54.472;18.464;2023-01-30T01:42:48;98499.67;;;1.01;99.61
59588;BME280;45412;54.472;18.464;2023-01-30T01:45:37;98491.77;;;0.99;99.50
59588;BME280;45412;54.472;18.464;2023-01-30T01:48:34;98473.39;;;0.97;99.31
59588;BME280;45412;54.472;18.464;2023-01-30T01:54:55;98464.57;;;0.96;99.00
59588;BME280;45412;54.472;18.464;2023-01-30T01:57:55;98457.56;;;0.93;99.03
59588;BME280;45412;54.472;18.464;2023-01-30T02:00:45;98457.17;;;0.94;99.01
59588;BME280;45412;54.472;18.464;2023-01-30T02:03:40;98445.38;;;0.92;98.90
59588;BME280;45412;54.472;18.464;2023-01-30T02:06:30;98440.42;;;0.91;99.10
59588;BME280;45412;54.472;18.464;2023-01-30T02:09:20;98432.59;;;0.91;99.17
59588;BME280;45412;54.472;18.464;2023-01-30T02:12:10;98423.59;;;0.90;99.18
59588;BME280;45412;54.472;18.464;2023-01-30T02:15:00;98421.06;;;0.85;99.26
59588;BME280;45412;54.472;18.464;2023-01-30T02:17:50;98418.65;;;0.84;99.24
59588;BME280;45412;54.472;18.464;2023-01-30T02:21:02;98416.21;;;0.81;99.53
59588;BME280;45412;54.472;18.464;2023-01-30T02:24:26;98413.91;;;0.82;99.47
59588;BME280;45412;54.472;18.464;2023-01-30T02:41:08;98377.19;;;0.83;99.88
59588;BME280;45412;54.472;18.464;2023-01-30T02:47:28;98367.88;;;0.81;99.93
59588;BME280;45412;54.472;18.464;2023-01-30T02:50:37;98365.66;;;0.78;100.00
59588;BME280;45412;54.472;18.464;2023-01-30T02:53:35;98361.14;;;0.78;100.00
59588;BME280;45412;54.472;18.464;2023-01-30T02:56:25;98350.64;;;0.72;100.00
59588;BME280;45412;54.472;18.464;2023-01-30T02:59:17;98334.48;;;0.68;100.00
59588;BME280;45412;54.472;18.464;2023-01-30T03:06:12;98323.06;;;0.64;100.00
59588;BME280;45412;54.472;18.464;2023-01-30T03:15:27;98288.29;;;0.57;100.00
59588;BME280;45412;54.472;18.464;2023-01-30T03:18:20;98275.10;;;0.55;100.00
59588;BME280;45412;54.472;18.464;2023-01-30T03:21:08;98276.55;;;0.57;100.00
59588;BME280;45412;54.472;18.464;2023-01-30T03:23:56;98271.83;;;0.55;100.00
59588;BME280;45412;54.472;18.464;2023-01-30T03:26:51;98267.36;;;0.54;100.00
59588;BME280;45412;54.472;18.464;2023-01-30T03:29:41;98265.50;;;0.53;100.00
59588;BME280;45412;54.472;18.464;2023-01-30T03:32:28;98254.91;;;0.49;100.00
59588;BME280;45412;54.472;18.464;2023-01-30T03:35:16;98258.34;;;0.50;100.00
59588;BME280;45412;54.472;18.464;2023-01-30T03:38:05;98251.05;;;0.49;100.00
59588;BME280;45412;54.472;18.464;2023-01-30T03:40:54;98239.64;;;0.48;100.00
59588;BME280;45412;54.472;18.464;2023-01-30T03:43:42;98239.06;;;0.46;100.00
59588;BME280;45412;54.472;18.464;2023-01-30T03:46:30;98226.02;;;0.42;100.00
59588;BME280;45412;54.472;18.464;2023-01-30T03:49:18;98217.44;;;0.40;100.00
59588;BME280;45412;54.472;18.464;2023-01-30T03:52:07;98208.86;;;0.35;100.00
59588;BME280;45412;54.472;18.464;2023-01-30T03:54:55;98207.51;;;0.38;100.00
59588;BME280;45412;54.472;18.464;2023-01-30T03:57:43;98208.80;;;0.33;100.00
59588;BME280;45412;54.472;18.464;2023-01-30T04:00:31;98208.25;;;0.34;100.00
59588;BME280;45412;54.472;18.464;2023-01-30T04:03:20;98199.71;;;0.33;100.00
59588;BME280;45412;54.472;18.464;2023-01-30T04:06:10;98188.27;;;0.35;100.00
59588;BME280;45412;54.472;18.464;2023-01-30T04:08:57;98174.52;;;0.35;100.00
59588;BME280;45412;54.472;18.464;2023-01-30T04:11:54;98175.88;;;0.36;100.00
59588;BME280;45412;54.472;18.464;2023-01-30T04:14:46;98158.98;;;0.35;100.00
59588;BME280;45412;54.472;18.464;2023-01-30T04:17:47;98144.27;;;0.36;100.00
59588;BME280;45412;54.472;18.464;2023-01-30T04:20:53;98146.73;;;0.36;100.00
59588;BME280;45412;54.472;18.464;2023-01-30T04:23:48;98136.50;;;0.32;100.00
59588;BME280;45412;54.472;18.464;2023-01-30T04:26:36;98135.20;;;0.33;100.00
59588;BME280;45412;54.472;18.464;2023-01-30T04:29:28;98123.77;;;0.34;100.00
59588;BME280;45412;54.472;18.464;2023-01-30T04:32:16;98119.77;;;0.37;100.00
59588;BME280;45412;54.472;18.464;2023-01-30T04:35:04;98115.95;;;0.37;100.00
59588;BME280;45412;54.472;18.464;2023-01-30T04:37:52;98098.84;;;0.37;100.00
59588;BME280;45412;54.472;18.464;2023-01-30T04:40:51;98093.71;;;0.38;100.00
59588;BME280;45412;54.472;18.464;2023-01-30T04:43:40;98097.63;;;0.42;100.00
59588;BME280;45412;54.472;18.464;2023-01-30T04:46:46;98085.91;;;0.42;100.00
59588;BME280;45412;54.472;18.464;2023-01-30T04:49:37;98073.18;;;0.45;100.00
59588;BME280;45412;54.472;18.464;2023-01-30T04:52:29;98073.60;;;0.49;100.00
59588;BME280;45412;54.472;18.464;2023-01-30T04:55:21;98072.16;;;0.50;100.00
59588;BME280;45412;54.472;18.464;2023-01-30T04:58:09;98061.73;;;0.52;100.00
59588;BME280;45412;54.472;18.464;2023-01-30T05:01:28;98047.98;;;0.54;100.00
59588;BME280;45412;54.472;18.464;2023-01-30T05:04:18;98052.70;;;0.59;100.00
59588;BME280;45412;54.472;18.464;2023-01-30T05:07:05;98028.88;;;0.60;100.00
59588;BME280;45412;54.472;18.464;2023-01-30T05:09:53;98025.91;;;0.60;100.00
59588;BME280;45412;54.472;18.464;2023-01-30T05:12:41;98018.00;;;0.61;100.00
59588;BME280;45412;54.472;18.464;2023-01-30T05:15:29;98010.80;;;0.61;100.00
59588;BME280;45412;54.472;18.464;2023-01-30T05:18:19;98006.70;;;0.60;100.00
59588;BME280;45412;54.472;18.464;2023-01-30T05:21:13;98001.49;;;0.60;100.00
59588;BME280;45412;54.472;18.464;2023-01-30T05:24:01;98003.23;;;0.57;100.00
59588;BME280;45412;54.472;18.464;2023-01-30T05:26:49;97993.77;;;0.55;100.00
59588;BME280;45412;54.472;18.464;2023-01-30T05:29:37;97990.40;;;0.54;100.00
59588;BME280;45412;54.472;18.464;2023-01-30T05:32:25;97981.66;;;0.54;100.00
59588;BME280;45412;54.472;18.464;2023-01-30T05:35:14;97976.50;;;0.53;100.00
59588;BME280;45412;54.472;18.464;2023-01-30T05:38:05;97977.84;;;0.51;100.00
59588;BME280;45412;54.472;18.464;2023-01-30T05:41:06;97973.61;;;0.52;100.00
59588;BME280;45412;54.472;18.464;2023-01-30T05:43:54;97966.20;;;0.50;100.00
59588;BME280;45412;54.472;18.464;2023-01-30T05:46:45;97953.21;;;0.44;100.00
59588;BME280;45412;54.472;18.464;2023-01-30T05:49:33;97959.08;;;0.49;100.00
59588;BME280;45412;54.472;18.464;2023-01-30T05:52:21;97957.13;;;0.50;100.00
59588;BME280;45412;54.472;18.464;2023-01-30T05:55:09;97950.13;;;0.50;100.00
59588;BME280;45412;54.472;18.464;2023-01-30T05:57:57;97948.69;;;0.51;100.00
59588;BME280;45412;54.472;18.464;2023-01-30T06:00:45;97937.63;;;0.52;100.00
59588;BME280;45412;54.472;18.464;2023-01-30T06:03:33;97937.15;;;0.52;100.00
59588;BME280;45412;54.472;18.464;2023-01-30T06:06:22;97941.61;;;0.50;100.00
59588;BME280;45412;54.472;18.464;2023-01-30T06:09:10;97941.96;;;0.48;100.00
59588;BME280;45412;54.472;18.464;2023-01-30T06:11:58;97932.19;;;0.47;100.00
59588;BME280;45412;54.472;18.464;2023-01-30T06:14:46;97936.34;;;0.45;100.00
59588;BME280;45412;54.472;18.464;2023-01-30T06:17:34;97944.20;;;0.43;100.00
59588;BME280;45412;54.472;18.464;2023-01-30T06:20:22;97936.25;;;0.42;100.00
59588;BME280;45412;54.472;18.464;2023-01-30T06:23:13;97933.57;;;0.43;100.00
59588;BME280;45412;54.472;18.464;2023-01-30T06:26:03;97928.82;;;0.41;100.00
59588;BME280;45412;54.472;18.464;2023-01-30T06:28:55;97927.69;;;0.42;100.00
59588;BME280;45412;54.472;18.464;2023-01-30T06:31:43;97928.35;;;0.45;100.00
59588;BME280;45412;54.472;18.464;2023-01-30T06:34:31;97920.82;;;0.46;100.00
59588;BME280;45412;54.472;18.464;2023-01-30T06:37:21;97920.87;;;0.45;100.00
59588;BME280;45412;54.472;18.464;2023-01-30T06:40:12;97916.73;;;0.47;100.00
59588;BME280;45412;54.472;18.464;2023-01-30T06:43:01;97913.30;;;0.48;100.00
59588;BME280;45412;54.472;18.464;2023-01-30T06:45:49;97900.98;;;0.49;100.00
59588;BME280;45412;54.472;18.464;2023-01-30T06:48:37;97900.31;;;0.52;100.00
59588;BME280;45412;54.472;18.464;2023-01-30T06:51:25;97898.91;;;0.54;100.00
59588;BME280;45412;54.472;18.464;2023-01-30T06:54:14;97893.98;;;0.57;100.00
59588;BME280;45412;54.472;18.464;2023-01-30T06:57:02;97896.19;;;0.58;100.00
59588;BME280;45412;54.472;18.464;2023-01-30T06:59:49;97892.67;;;0.61;100.00
59588;BME280;45412;54.472;18.464;2023-01-30T07:02:41;97886.80;;;0.63;100.00
59588;BME280;45412;54.472;18.464;2023-01-30T07:05:29;97887.93;;;0.64;100.00
59588;BME280;45412;54.472;18.464;2023-01-30T07:08:17;97888.44;;;0.66;100.00
59588;BME280;45412;54.472;18.464;2023-01-30T07:11:05;97879.48;;;0.70;100.00
59588;BME280;45412;54.472;18.464;2023-01-30T07:13:56;97875.81;;;0.72;100.00
59588;BME280;45412;54.472;18.464;2023-01-30T07:16:44;97876.23;;;0.76;100.00
59588;BME280;45412;54.472;18.464;2023-01-30T07:19:32;97878.98;;;0.77;100.00
59588;BME280;45412;54.472;18.464;2023-01-30T07:22:21;97888.55;;;0.79;100.00
59588;BME280;45412;54.472;18.464;2023-01-30T07:25:09;97890.48;;;0.84;100.00
59588;BME280;45412;54.472;18.464;2023-01-30T07:28:00;97889.36;;;0.88;100.00
59588;BME280;45412;54.472;18.464;2023-01-30T07:30:51;97892.92;;;0.89;100.00
59588;BME280;45412;54.472;18.464;2023-01-30T07:33:39;97889.59;;;0.90;100.00
59588;BME280;45412;54.472;18.464;2023-01-30T07:36:27;97896.91;;;0.92;100.00
59588;BME280;45412;54.472;18.464;2023-01-30T07:39:15;97903.95;;;0.96;100.00
59588;BME280;45412;54.472;18.464;2023-01-30T07:42:03;97898.30;;;1.02;100.00
59588;BME280;45412;54.472;18.464;2023-01-30T07:44:51;97903.70;;;1.05;100.00
59588;BME280;45412;54.472;18.464;2023-01-30T07:47:39;97900.21;;;1.07;100.00
59588;BME280;45412;54.472;18.464;2023-01-30T07:50:29;97894.20;;;1.10;100.00
59588;BME280;45412;54.472;18.464;2023-01-30T07:53:17;97884.23;;;1.13;100.00
59588;BME280;45412;54.472;18.464;2023-01-30T07:56:11;97885.19;;;1.14;100.00
59588;BME280;45412;54.472;18.464;2023-01-30T07:59:00;97888.31;;;1.14;100.00
59588;BME280;45412;54.472;18.464;2023-01-30T08:01:49;97895.27;;;1.19;100.00
59588;BME280;45412;54.472;18.464;2023-01-30T08:04:39;97887.20;;;1.25;100.00
59588;BME280;45412;54.472;18.464;2023-01-30T08:07:27;97895.64;;;1.31;100.00
59588;BME280;45412;54.472;18.464;2023-01-30T08:10:15;97892.00;;;1.35;100.00
59588;BME280;45412;54.472;18.464;2023-01-30T08:13:04;97892.42;;;1.41;100.00
59588;BME280;45412;54.472;18.464;2023-01-30T08:15:52;97887.50;;;1.44;100.00
59588;BME280;45412;54.472;18.464;2023-01-30T08:18:39;97887.67;;;1.44;100.00
59588;BME280;45412;54.472;18.464;2023-01-30T08:21:27;97884.85;;;1.45;100.00
59588;BME280;45412;54.472;18.464;2023-01-30T08:24:16;97884.61;;;1.46;100.00
59588;BME280;45412;54.472;18.464;2023-01-30T08:27:06;97874.09;;;1.41;100.00
59588;BME280;45412;54.472;18.464;2023-01-30T08:29:54;97879.14;;;1.39;100.00
59588;BME280;45412;54.472;18.464;2023-01-30T08:32:45;97866.70;;;1.37;100.00
59588;BME280;45412;54.472;18.464;2023-01-30T08:35:32;97852.77;;;1.37;100.00
59588;BME280;45412;54.472;18.464;2023-01-30T08:38:23;97855.17;;;1.37;100.00
59588;BME280;45412;54.472;18.464;2023-01-30T08:41:13;97849.69;;;1.40;100.00
59588;BME280;45412;54.472;18.464;2023-01-30T08:44:01;97859.52;;;1.47;100.00
59588;BME280;45412;54.472;18.464;2023-01-30T08:46:49;97858.22;;;1.50;100.00
59588;BME280;45412;54.472;18.464;2023-01-30T08:49:37;97861.19;;;1.50;100.00
59588;BME280;45412;54.472;18.464;2023-01-30T08:52:27;97859.05;;;1.48;100.00
59588;BME280;45412;54.472;18.464;2023-01-30T08:55:15;97852.14;;;1.50;100.00
59588;BME280;45412;54.472;18.464;2023-01-30T08:58:04;97855.38;;;1.58;100.00
59588;BME280;45412;54.472;18.464;2023-01-30T09:00:52;97852.30;;;1.64;100.00
59588;BME280;45412;54.472;18.464;2023-01-30T09:03:42;97839.09;;;1.67;100.00
59588;BME280;45412;54.472;18.464;2023-01-30T09:06:30;97841.91;;;1.76;100.00
59588;BME280;45412;54.472;18.464;2023-01-30T09:09:18;97829.11;;;1.90;100.00
59588;BME280;45412;54.472;18.464;2023-01-30T09:12:06;97825.98;;;2.03;99.97
59588;BME280;45412;54.472;18.464;2023-01-30T09:14:55;97822.90;;;2.14;99.82
59588;BME280;45412;54.472;18.464;2023-01-30T09:17:45;97828.95;;;2.19;99.11
59588;BME280;45412;54.472;18.464;2023-01-30T09:20:33;97831.19;;;2.24;99.06
59588;BME280;45412;54.472;18.464;2023-01-30T09:23:21;97820.71;;;2.26;98.84
59588;BME280;45412;54.472;18.464;2023-01-30T09:26:09;97817.82;;;2.30;98.77
59588;BME280;45412;54.472;18.464;2023-01-30T09:28:57;97805.68;;;2.37;98.51
59588;BME280;45412;54.472;18.464;2023-01-30T09:31:51;97812.08;;;2.56;98.41
59588;BME280;45412;54.472;18.464;2023-01-30T09:34:41;97804.83;;;2.69;97.54
59588;BME280;45412;54.472;18.464;2023-01-30T09:37:29;97807.95;;;2.81;96.98
59588;BME280;45412;54.472;18.464;2023-01-30T09:40:23;97807.64;;;2.85;96.64
59588;BME280;45412;54.472;18.464;2023-01-30T09:50:51;97810.80;;;3.21;95.77
59588;BME280;45412;54.472;18.464;2023-01-30T09:54:25;97815.58;;;4.30;94.85
59588;BME280;45412;54.472;18.464;2023-01-30T09:57:22;97809.91;;;5.79;85.83
59588;BME280;45412;54.472;18.464;2023-01-30T10:03:19;97807.08;;;6.07;80.87
59588;BME280;45412;54.472;18.464;2023-01-30T10:06:13;97805.23;;;5.53;82.18
59588;BME280;45412;54.472;18.464;2023-01-30T10:09:30;97800.96;;;5.27;83.20
59588;BME280;45412;54.472;18.464;2023-01-30T10:12:28;97808.73;;;4.60;84.20
59588;BME280;45412;54.472;18.464;2023-01-30T10:15:48;97805.09;;;4.09;85.24
59588;BME280;45412;54.472;18.464;2023-01-30T10:22:06;97818.70;;;3.38;88.00
59588;BME280;45412;54.472;18.464;2023-01-30T10:28:11;97815.57;;;2.77;90.36
59588;BME280;45412;54.472;18.464;2023-01-30T10:31:09;97815.95;;;2.77;91.88
59588;BME280;45412;54.472;18.464;2023-01-30T10:34:05;97822.67;;;3.00;91.27
59588;BME280;45412;54.472;18.464;2023-01-30T10:37:28;97819.80;;;2.84;90.94
59588;BME280;45412;54.472;18.464;2023-01-30T10:40:37;97816.35;;;2.74;91.85
59588;BME280;45412;54.472;18.464;2023-01-30T10:43:43;97808.05;;;2.73;92.51
59588;BME280;45412;54.472;18.464;2023-01-30T10:47:13;97805.38;;;2.82;93.25
59588;BME280;45412;54.472;18.464;2023-01-30T10:50:17;97783.95;;;5.71;87.70
59588;BME280;45412;54.472;18.464;2023-01-30T10:53:21;97766.95;;;8.35;78.34
59588;BME280;45412;54.472;18.464;2023-01-30T10:56:19;97765.20;;;8.39;68.38
59588;BME280;45412;54.472;18.464;2023-01-30T10:59:59;97766.63;;;7.87;69.92
59588;BME280;45412;54.472;18.464;2023-01-30T11:06:10;97752.23;;;9.39;65.87
59588;BME280;45412;54.472;18.464;2023-01-30T11:08:59;97732.99;;;10.31;61.91
59588;BME280;45412;54.472;18.464;2023-01-30T11:11:50;97725.98;;;10.51;60.08
59588;BME280;45412;54.472;18.464;2023-01-30T11:14:52;97727.23;;;10.74;60.73
59588;BME280;45412;54.472;18.464;2023-01-30T11:17:43;97721.56;;;10.00;60.89
59588;BME280;45412;54.472;18.464;2023-01-30T11:20:41;97722.67;;;8.82;64.14
59588;BME280;45412;54.472;18.464;2023-01-30T11:23:39;97725.30;;;7.94;67.82
59588;BME280;45412;54.472;18.464;2023-01-30T11:26:38;97720.23;;;7.12;71.06
59588;BME280;45412;54.472;18.464;2023-01-30T11:29:38;97735.48;;;6.25;74.73
59588;BME280;45412;54.472;18.464;2023-01-30T11:32:27;97721.20;;;5.56;77.81
59588;BME280;45412;54.472;18.464;2023-01-30T11:35:26;97723.34;;;5.60;79.67
59588;BME280;45412;54.472;18.464;2023-01-30T11:38:30;97721.95;;;5.67;79.46
59588;BME280;45412;54.472;18.464;2023-01-30T11:41:21;97706.48;;;5.62;79.67
59588;BME280;45412;54.472;18.464;2023-01-30T11:44:10;97700.23;;;5.42;80.71
59588;BME280;45412;54.472;18.464;2023-01-30T11:47:01;97689.29;;;5.25;81.07
59588;BME280;45412;54.472;18.464;2023-01-30T11:49:53;97678.14;;;5.19;81.94
59588;BME280;45412;54.472;18.464;2023-01-30T11:53:04;97675.64;;;5.49;81.36
59588;BME280;45412;54.472;18.464;2023-01-30T11:56:21;97676.33;;;5.38;79.70
59588;BME280;45412;54.472;18.464;2023-01-30T11:59:42;97666.19;;;5.24;80.18
59588;BME280;45412;54.472;18.464;2023-01-30T12:02:37;97667.29;;;5.08;80.47
59588;BME280;45412;54.472;18.464;2023-01-30T12:05:36;97667.79;;;5.02;81.28
59588;BME280;45412;54.472;18.464;2023-01-30T12:08:36;97669.26;;;4.83;81.76
59588;BME280;45412;54.472;18.464;2023-01-30T12:14:36;97673.20;;;4.53;84.12
59588;BME280;45412;54.472;18.464;2023-01-30T12:21:00;97691.20;;;4.27;86.88
59588;BME280;45412;54.472;18.464;2023-01-30T12:23:59;97689.00;;;4.26;87.12
59588;BME280;45412;54.472;18.464;2023-01-30T12:26:59;97688.03;;;4.17;86.60
59588;BME280;45412;54.472;18.464;2023-01-30T12:30:14;97701.87;;;3.93;86.31
59588;BME280;45412;54.472;18.464;2023-01-30T12:33:12;97696.34;;;3.68;87.76
59588;BME280;45412;54.472;18.464;2023-01-30T12:42:51;97706.64;;;3.01;91.70
59588;BME280;45412;54.472;18.464;2023-01-30T12:53:29;97691.91;;;2.67;93.05
59588;BME280;45412;54.472;18.464;2023-01-30T12:56:36;97692.35;;;2.60;93.65
59588;BME280;45412;54.472;18.464;2023-01-30T13:09:26;97675.98;;;2.96;94.14
59588;BME280;45412;54.472;18.464;2023-01-30T13:19:17;97669.04;;;3.02;92.02
59588;BME280;45412;54.472;18.464;2023-01-30T13:25:17;97681.92;;;2.90;92.62
59588;BME280;45412;54.472;18.464;2023-01-30T13:28:16;97668.61;;;2.84;93.35
59588;BME280;45412;54.472;18.464;2023-01-30T13:31:09;97668.34;;;2.79;93.98
59588;BME280;45412;54.472;18.464;2023-01-30T13:34:09;97659.52;;;2.78;94.17
59588;BME280;45412;54.472;18.464;2023-01-30T13:37:16;97654.83;;;2.77;94.40
59588;BME280;45412;54.472;18.464;2023-01-30T13:40:23;97661.86;;;2.81;93.99
59588;BME280;45412;54.472;18.464;2023-01-30T13:43:39;97653.05;;;2.84;94.11
59588;BME280;45412;54.472;18.464;2023-01-30T13:46:30;97654.43;;;2.88;93.37
59588;BME280;45412;54.472;18.464;2023-01-30T13:56:31;97646.55;;;2.90;92.40
59588;BME280;45412;54.472;18.464;2023-01-30T14:02:24;97664.48;;;2.87;92.52
59588;BME280;45412;54.472;18.464;2023-01-30T14:05:12;97672.24;;;2.85;92.89
59588;BME280;45412;54.472;18.464;2023-01-30T14:08:00;97680.48;;;2.83;93.15
59588;BME280;45412;54.472;18.464;2023-01-30T14:10:48;97679.14;;;2.82;93.60
59588;BME280;45412;54.472;18.464;2023-01-30T14:13:52;97674.86;;;2.80;93.65
59588;BME280;45412;54.472;18.464;2023-01-30T14:16:46;97673.52;;;2.78;93.86
59588;BME280;45412;54.472;18.464;2023-01-30T14:25:45;97673.84;;;2.74;94.13
59588;BME280;45412;54.472;18.464;2023-01-30T14:31:48;97679.42;;;2.72;93.62
59588;BME280;45412;54.472;18.464;2023-01-30T14:35:24;97694.80;;;2.70;93.42
59588;BME280;45412;54.472;18.464;2023-01-30T14:38:17;97692.09;;;2.67;93.68
59588;BME280;45412;54.472;18.464;2023-01-30T14:43:53;97705.79;;;2.65;94.43
59588;BME280;45412;54.472;18.464;2023-01-30T14:46:44;97718.94;;;2.66;94.56
59588;BME280;45412;54.472;18.464;2023-01-30T14:49:43;97726.19;;;2.67;94.32
59588;BME280;45412;54.472;18.464;2023-01-30T14:52:41;97733.36;;;2.65;93.44
59588;BME280;45412;54.472;18.464;2023-01-30T14:55:29;97746.00;;;2.63;93.00
59588;BME280;45412;54.472;18.464;2023-01-30T14:58:18;97753.75;;;2.61;92.93
59588;BME280;45412;54.472;18.464;2023-01-30T15:01:07;97747.38;;;2.59;92.82
59588;BME280;45412;54.472;18.464;2023-01-30T15:03:55;97742.15;;;2.59;92.39
59588;BME280;45412;54.472;18.464;2023-01-30T15:06:45;97744.73;;;2.55;92.30
59588;BME280;45412;54.472;18.464;2023-01-30T15:09:34;97744.67;;;2.51;91.86
59588;BME280;45412;54.472;18.464;2023-01-30T15:22:39;97746.31;;;2.35;94.56
59588;BME280;45412;54.472;18.464;2023-01-30T15:25:51;97743.42;;;2.30;94.99
59588;BME280;45412;54.472;18.464;2023-01-30T15:32:00;97757.26;;;2.08;96.56
59588;BME280;45412;54.472;18.464;2023-01-30T15:34:57;97766.16;;;1.95;97.51
59588;BME280;45412;54.472;18.464;2023-01-30T15:37:50;97760.15;;;1.87;97.89
59588;BME280;45412;54.472;18.464;2023-01-30T15:40:39;97757.79;;;1.79;98.28
59588;BME280;45412;54.472;18.464;2023-01-30T15:43:52;97759.64;;;1.71;99.01
59588;BME280;45412;54.472;18.464;2023-01-30T15:50:14;97772.89;;;1.69;99.68
59588;BME280;45412;54.472;18.464;2023-01-30T15:53:03;97778.02;;;1.70;99.94
59588;BME280;45412;54.472;18.464;2023-01-30T15:55:52;97796.13;;;1.76;100.00
59588;BME280;45412;54.472;18.464;2023-01-30T15:58:42;97801.89;;;1.83;100.00
59588;BME280;45412;54.472;18.464;2023-01-30T16:01:36;97816.67;;;1.88;100.00
59588;BME280;45412;54.472;18.464;2023-01-30T16:04:28;97819.39;;;1.92;100.00
59588;BME280;45412;54.472;18.464;2023-01-30T16:07:24;97811.79;;;1.88;99.93
59588;BME280;45412;54.472;18.464;2023-01-30T16:10:25;97809.42;;;1.80;99.60
59588;BME280;45412;54.472;18.464;2023-01-30T16:13:15;97809.70;;;1.72;99.31
59588;BME280;45412;54.472;18.464;2023-01-30T16:16:12;97814.94;;;1.63;99.77
59588;BME280;45412;54.472;18.464;2023-01-30T16:19:04;97808.71;;;1.55;99.99
59588;BME280;45412;54.472;18.464;2023-01-30T16:21:57;97797.80;;;1.50;100.00
59588;BME280;45412;54.472;18.464;2023-01-30T16:24:51;97798.17;;;1.45;100.00
59588;BME280;45412;54.472;18.464;2023-01-30T16:27:41;97798.37;;;1.40;100.00
59588;BME280;45412;54.472;18.464;2023-01-30T16:30:35;97810.90;;;1.35;100.00
59588;BME280;45412;54.472;18.464;2023-01-30T16:33:30;97812.52;;;1.32;100.00
59588;BME280;45412;54.472;18.464;2023-01-30T16:39:31;97816.61;;;1.32;100.00
59588;BME280;45412;54.472;18.464;2023-01-30T16:42:24;97823.01;;;1.35;100.00
59588;BME280;45412;54.472;18.464;2023-01-30T16:51:22;97805.46;;;1.41;100.00
59588;BME280;45412;54.472;18.464;2023-01-30T16:54:21;97799.02;;;1.40;100.00
59588;BME280;45412;54.472;18.464;2023-01-30T16:58:00;97801.27;;;1.38;100.00
59588;BME280;45412;54.472;18.464;2023-01-30T17:00:40;97797.35;;;1.34;100.00
59588;BME280;45412;54.472;18.464;2023-01-30T17:03:39;97797.48;;;1.31;100.00
59588;BME280;45412;54.472;18.464;2023-01-30T17:06:42;97805.38;;;1.28;100.00
59588;BME280;45412;54.472;18.464;2023-01-30T17:09:38;97813.80;;;1.25;100.00
59588;BME280;45412;54.472;18.464;2023-01-30T17:12:42;97821.60;;;1.21;100.00
59588;BME280;45412;54.472;18.464;2023-01-30T17:15:34;97827.98;;;1.17;100.00
59588;BME280;45412;54.472;18.464;2023-01-30T17:18:25;97831.23;;;1.16;100.00
59588;BME280;45412;54.472;18.464;2023-01-30T17:21:16;97840.35;;;1.15;100.00
59588;BME280;45412;54.472;18.464;2023-01-30T17:24:05;97840.77;;;1.15;100.00
59588;BME280;45412;54.472;18.464;2023-01-30T17:27:00;97832.52;;;1.13;100.00
59588;BME280;45412;54.472;18.464;2023-01-30T17:29:49;97841.53;;;1.16;100.00
59588;BME280;45412;54.472;18.464;2023-01-30T17:32:37;97850.70;;;1.17;100.00
59588;BME280;45412;54.472;18.464;2023-01-30T17:35:28;97850.00;;;1.17;100.00